PHOENIX SKY HARBOR INTL

KPHX (PHX)
Phoenix, Arizona
Towered

Vatsim Metar:
KPHX 111151Z 08003KT 10SM BKN240 09/06 A3015 RMK AO2 SLP203 T00940061 10128 20094 58005 $

No ATC Online

Traffic

Inbound:
Ident
Type
Name
ETA
Phase
STV1015
H/B744/L
Kurt Wieser EDDF
18:36 Z
Climb

Outbound:
None